createdAt,value
2018-12-12T00:00:24.466Z,1.62
2018-12-12T00:02:57.187Z,1.67
2018-12-12T00:05:29.937Z,1.61
2018-12-12T00:08:02.629Z,1.64
2018-12-12T00:10:33.377Z,1.70
2018-12-12T00:13:03.919Z,1.65
2018-12-12T00:15:35.604Z,1.66
2018-12-12T00:18:09.138Z,1.63
2018-12-12T00:20:39.871Z,1.54
2018-12-12T00:23:10.497Z,1.45
2018-12-12T00:25:41.211Z,1.48
2018-12-12T00:28:11.790Z,1.45
2018-12-12T00:30:42.761Z,1.40
2018-12-12T00:33:13.455Z,1.39
2018-12-12T00:35:44.099Z,1.32
2018-12-12T00:38:14.732Z,1.31
2018-12-12T00:40:45.506Z,1.34
2018-12-12T00:43:16.172Z,1.28
2018-12-12T00:45:47.492Z,1.29
2018-12-12T00:48:19.169Z,1.22
2018-12-12T00:50:52.766Z,1.24
2018-12-12T00:53:23.620Z,1.25
2018-12-12T00:55:54.350Z,1.13
2018-12-12T00:58:25.085Z,1.08
2018-12-12T01:00:55.706Z,0.98
2018-12-12T01:03:26.339Z,0.97
2018-12-12T01:05:56.951Z,0.89
2018-12-12T01:08:27.680Z,0.92
2018-12-12T01:11:03.360Z,0.88
2018-12-12T01:13:33.937Z,0.85
2018-12-12T01:16:04.610Z,0.85
2018-12-12T01:18:35.264Z,0.84
2018-12-12T01:21:06.000Z,0.91
2018-12-12T01:23:36.645Z,0.83
2018-12-12T01:26:07.296Z,0.83
2018-12-12T01:28:37.943Z,0.89
2018-12-12T01:31:08.856Z,1.05
2018-12-12T01:33:39.424Z,1.01
2018-12-12T01:36:10.094Z,0.90
2018-12-12T01:38:40.733Z,0.89
2018-12-12T01:41:11.466Z,0.89
2018-12-12T01:43:42.113Z,0.92
2018-12-12T01:46:12.773Z,0.90
2018-12-12T01:48:43.457Z,0.97
2018-12-12T01:51:14.399Z,0.96
2018-12-12T01:53:47.127Z,0.98
2018-12-12T01:56:17.757Z,0.97
2018-12-12T01:58:48.413Z,0.93
2018-12-12T02:01:19.091Z,0.96
2018-12-12T02:03:49.711Z,1.07
2018-12-12T02:06:20.367Z,1.06
2018-12-12T02:08:52.105Z,0.95
2018-12-12T02:11:22.994Z,0.92
2018-12-12T02:13:53.598Z,0.96
2018-12-12T02:16:25.449Z,0.95
2018-12-12T02:18:56.329Z,0.97
2018-12-12T02:21:26.999Z,0.97
2018-12-12T02:23:57.681Z,1.08
2018-12-12T02:26:28.393Z,1.10
2018-12-12T02:28:59.042Z,1.25
2018-12-12T02:31:29.912Z,1.17
2018-12-12T02:34:00.517Z,1.09
2018-12-12T02:36:31.152Z,1.11
2018-12-12T02:39:01.804Z,1.14
2018-12-12T02:41:33.766Z,0.99
2018-12-12T02:44:04.490Z,1.06
2018-12-12T02:46:36.393Z,1.11
2018-12-12T02:49:06.989Z,1.11
2018-12-12T02:51:37.811Z,1.19
2018-12-12T02:54:08.392Z,1.11
2018-12-12T02:56:39.048Z,1.09
2018-12-12T02:59:09.734Z,1.00
2018-12-12T03:01:40.355Z,1.03
2018-12-12T03:04:11.097Z,1.00
2018-12-12T03:06:41.685Z,1.03
2018-12-12T03:09:12.336Z,0.97
2018-12-12T03:11:43.200Z,1.00
2018-12-12T03:14:13.817Z,1.04
2018-12-12T03:16:44.446Z,1.02
2018-12-12T03:19:15.046Z,0.99
2018-12-12T03:21:45.692Z,1.00
2018-12-12T03:24:16.367Z,0.97
2018-12-12T03:26:46.846Z,1.06
2018-12-12T03:29:17.506Z,1.15
2018-12-12T03:31:48.376Z,1.24
2018-12-12T03:34:19.040Z,1.25
2018-12-12T03:36:49.760Z,1.21
2018-12-12T03:39:20.428Z,1.14
2018-12-12T03:41:51.107Z,1.14
2018-12-12T03:44:21.713Z,1.17
2018-12-12T03:46:52.401Z,1.17
2018-12-12T03:49:23.007Z,1.05
2018-12-12T03:51:54.799Z,1.01
2018-12-12T03:54:25.456Z,1.08
2018-12-12T03:56:56.178Z,1.19
2018-12-12T03:59:26.815Z,1.24
2018-12-12T04:01:57.425Z,1.17
2018-12-12T04:04:28.020Z,1.11
2018-12-12T04:06:58.801Z,1.09
2018-12-12T04:09:29.465Z,1.17
2018-12-12T04:12:00.199Z,1.17
2018-12-12T04:14:31.559Z,1.15
2018-12-12T04:17:02.230Z,1.13
2018-12-12T04:19:32.863Z,1.14
2018-12-12T04:22:05.648Z,1.09
2018-12-12T04:24:36.423Z,1.20
2018-12-12T04:27:07.158Z,1.14
2018-12-12T04:29:37.861Z,1.19
2018-12-12T04:32:08.645Z,1.26
2018-12-12T04:34:39.237Z,1.27
2018-12-12T04:37:09.852Z,1.27
2018-12-12T04:39:40.459Z,1.34
2018-12-12T04:42:11.134Z,1.33
2018-12-12T04:44:41.748Z,1.28
2018-12-12T04:47:12.321Z,1.37
2018-12-12T04:49:42.940Z,1.37
2018-12-12T04:52:13.829Z,1.24
2018-12-12T04:54:44.572Z,1.17
2018-12-12T04:57:15.313Z,1.20
2018-12-12T04:59:45.976Z,1.13
2018-12-12T05:02:22.001Z,1.14
2018-12-12T05:04:53.434Z,1.18
2018-12-12T05:07:24.512Z,1.16
2018-12-12T05:09:55.577Z,1.25
2018-12-12T05:12:26.610Z,1.26
2018-12-12T05:14:57.220Z,1.31
2018-12-12T05:17:27.921Z,1.32
2018-12-12T05:19:58.602Z,1.23
2018-12-12T05:22:29.218Z,1.20
2018-12-12T05:24:59.880Z,1.23
2018-12-12T05:27:30.437Z,1.22
2018-12-12T05:30:01.090Z,1.32
2018-12-12T05:32:31.754Z,1.35
2018-12-12T05:35:03.556Z,1.31
2018-12-12T05:37:34.254Z,1.24
2018-12-12T05:40:05.154Z,1.22
2018-12-12T05:42:36.064Z,1.30
2018-12-12T05:45:07.120Z,1.27
2018-12-12T05:47:37.847Z,1.23
2018-12-12T05:50:08.534Z,1.17
2018-12-12T05:52:39.478Z,1.14
2018-12-12T05:55:10.107Z,1.02
2018-12-12T05:57:40.883Z,1.11
2018-12-12T06:00:13.305Z,1.18
2018-12-12T06:02:43.981Z,1.16
2018-12-12T06:05:14.712Z,1.17
2018-12-12T06:07:45.388Z,1.20
2018-12-12T06:10:16.081Z,1.09
2018-12-12T06:12:47.044Z,1.07
2018-12-12T06:15:17.693Z,1.14
2018-12-12T06:17:48.488Z,1.20
2018-12-12T06:20:21.284Z,1.18
2018-12-12T06:22:52.065Z,1.14
2018-12-12T06:25:22.735Z,1.13
2018-12-12T06:27:53.418Z,1.04
2018-12-12T06:30:24.217Z,1.03
2018-12-12T06:33:01.605Z,1.14
2018-12-12T06:35:34.244Z,1.17
2018-12-12T06:38:05.201Z,1.09
2018-12-12T06:40:35.890Z,1.15
2018-12-12T06:43:06.540Z,1.06
2018-12-12T06:45:37.180Z,1.09
2018-12-12T06:48:07.906Z,1.10
2018-12-12T06:50:38.492Z,1.13
2018-12-12T06:53:09.215Z,1.25
2018-12-12T06:55:39.839Z,1.24
2018-12-12T06:58:11.063Z,1.38
2018-12-12T07:00:41.912Z,1.32
2018-12-12T07:03:12.597Z,1.46
2018-12-12T07:05:43.221Z,1.42
2018-12-12T07:08:14.309Z,1.49
2018-12-12T07:10:45.021Z,1.47
2018-12-12T07:13:17.382Z,1.39
2018-12-12T07:15:48.187Z,1.38
2018-12-12T07:18:20.121Z,1.34
2018-12-12T07:20:50.837Z,1.47
2018-12-12T07:23:21.699Z,1.47
2018-12-12T07:25:52.376Z,1.49
2018-12-12T07:28:23.131Z,1.61
2018-12-12T07:30:53.857Z,1.66
2018-12-12T07:33:25.177Z,1.74
2018-12-12T07:35:59.454Z,1.83
2018-12-12T07:38:28.830Z,1.78
2018-12-12T07:41:00.633Z,1.82
2018-12-12T07:43:33.462Z,1.78
2018-12-12T07:46:26.113Z,1.81
2018-12-12T07:48:59.842Z,1.88
2018-12-12T07:51:35.897Z,1.84
2018-12-12T07:54:14.208Z,1.79
2018-12-12T07:56:44.978Z,1.80
2018-12-12T07:59:15.649Z,1.71
2018-12-12T08:01:46.272Z,1.65
2018-12-12T08:04:16.938Z,1.64
2018-12-12T08:06:47.618Z,1.59
2018-12-12T08:09:18.296Z,1.52
2018-12-12T08:11:48.915Z,1.49
2018-12-12T08:14:19.654Z,1.52
2018-12-12T08:16:50.409Z,1.58
2018-12-12T08:19:21.091Z,1.56
2018-12-12T08:21:52.655Z,1.62
2018-12-12T08:24:24.026Z,1.63
2018-12-12T08:26:54.711Z,1.62
2018-12-12T08:29:25.393Z,1.67
2018-12-12T08:31:55.994Z,1.70
2018-12-12T08:34:26.941Z,1.78
2018-12-12T08:36:57.627Z,1.79
2018-12-12T08:39:28.307Z,1.67
2018-12-12T08:41:59.087Z,1.71
2018-12-12T08:44:29.753Z,1.80
2018-12-12T08:47:00.372Z,1.88
2018-12-12T08:49:31.033Z,1.80
2018-12-12T08:52:01.654Z,1.89
2018-12-12T08:54:33.570Z,1.84
2018-12-12T08:57:04.211Z,1.89
2018-12-12T08:59:35.909Z,1.95
2018-12-12T09:02:06.597Z,1.95
2018-12-12T09:04:37.253Z,2.00
2018-12-12T09:07:07.817Z,2.03
2018-12-12T09:09:39.999Z,2.06
2018-12-12T09:12:10.635Z,2.03
2018-12-12T09:14:41.496Z,2.05
2018-12-12T09:17:13.344Z,2.13
2018-12-12T09:19:44.220Z,2.10
2018-12-12T09:22:14.784Z,2.19
2018-12-12T09:24:45.483Z,2.18
2018-12-12T09:27:16.276Z,2.21
2018-12-12T09:29:46.853Z,1.98
2018-12-12T09:32:19.524Z,2.06
2018-12-12T09:34:52.454Z,2.06
2018-12-12T09:37:22.991Z,2.12
2018-12-12T09:39:53.678Z,2.21
2018-12-12T09:42:24.381Z,2.35
2018-12-12T09:44:55.036Z,2.57
2018-12-12T09:47:26.274Z,2.60
2018-12-12T09:49:56.957Z,2.80
2018-12-12T09:52:29.740Z,2.76
2018-12-12T09:55:02.854Z,2.81
2018-12-12T09:57:33.617Z,2.92
2018-12-12T10:00:04.361Z,3.24
2018-12-12T10:02:35.534Z,3.61
2018-12-12T10:05:06.507Z,4.01
2018-12-12T10:07:37.461Z,3.89
2018-12-12T10:10:09.095Z,3.58
2018-12-12T10:12:39.862Z,3.89
2018-12-12T10:15:10.801Z,3.95
2018-12-12T10:17:41.488Z,3.99
2018-12-12T10:20:12.207Z,3.92
2018-12-12T10:22:43.016Z,3.68
2018-12-12T10:25:13.811Z,3.40
2018-12-12T10:27:45.670Z,3.29
2018-12-12T10:30:16.431Z,3.24
2018-12-12T10:32:47.011Z,3.38
2018-12-12T10:35:17.684Z,3.38
2018-12-12T10:37:48.301Z,3.19
2018-12-12T10:40:19.051Z,3.15
2018-12-12T10:42:49.609Z,2.97
2018-12-12T10:45:20.394Z,3.11
2018-12-12T10:47:51.189Z,3.10
2018-12-12T10:50:22.017Z,3.23
2018-12-12T10:52:52.739Z,3.24
2018-12-12T10:55:25.792Z,3.25
2018-12-12T10:57:56.432Z,3.17
2018-12-12T11:00:27.148Z,3.12
2018-12-12T11:03:03.067Z,3.07
2018-12-12T11:05:33.850Z,2.96
2018-12-12T11:08:04.787Z,3.04
2018-12-12T11:10:35.604Z,3.23
2018-12-12T11:13:06.321Z,3.19
2018-12-12T11:15:37.183Z,3.37
2018-12-12T11:18:07.840Z,3.42
2018-12-12T11:20:38.556Z,3.29
2018-12-12T11:23:09.142Z,3.20
2018-12-12T11:25:39.796Z,3.22
2018-12-12T11:28:10.406Z,3.25
2018-12-12T11:30:41.073Z,3.13
2018-12-12T11:33:11.704Z,3.22
2018-12-12T11:35:42.658Z,3.20
2018-12-12T11:38:13.382Z,3.17
2018-12-12T11:40:43.986Z,3.06
2018-12-12T11:43:14.996Z,3.20
2018-12-12T11:45:45.532Z,3.24
2018-12-12T11:48:17.350Z,3.23
2018-12-12T11:50:48.018Z,3.12
2018-12-12T11:53:18.700Z,3.10
2018-12-12T11:55:49.601Z,3.07
2018-12-12T11:58:20.213Z,3.00
2018-12-12T12:00:50.881Z,3.03
2018-12-12T12:03:21.515Z,2.80
2018-12-12T12:05:52.114Z,2.83
2018-12-12T12:08:22.767Z,2.93
2018-12-12T12:10:53.370Z,2.97
2018-12-12T12:13:26.242Z,2.92
2018-12-12T12:15:57.175Z,2.82
2018-12-12T12:18:27.792Z,2.83
2018-12-12T12:20:58.594Z,2.76
2018-12-12T12:23:29.319Z,2.78
2018-12-12T12:25:59.939Z,2.76
2018-12-12T12:28:30.536Z,2.73
2018-12-12T12:31:01.151Z,2.76
2018-12-12T12:33:31.827Z,2.64
2018-12-12T12:36:02.610Z,2.59
2018-12-12T12:38:33.341Z,2.55
2018-12-12T12:41:04.074Z,2.48
2018-12-12T12:43:34.718Z,2.47
2018-12-12T12:46:05.485Z,2.60
2018-12-12T12:48:36.040Z,2.64
2018-12-12T12:51:06.707Z,2.63
2018-12-12T12:53:37.392Z,2.56
2018-12-12T12:56:08.066Z,2.47
2018-12-12T12:58:38.708Z,2.49
2018-12-12T13:01:09.312Z,2.40
2018-12-12T13:03:40.132Z,2.36
2018-12-12T13:06:12.087Z,2.42
2018-12-12T13:08:42.749Z,2.25
2018-12-12T13:11:14.947Z,2.17
2018-12-12T13:13:45.872Z,2.27
2018-12-12T13:16:16.636Z,2.21
2018-12-12T13:18:47.310Z,2.16
2018-12-12T13:21:17.876Z,2.15
2018-12-12T13:23:48.618Z,2.26
2018-12-12T13:26:19.226Z,2.34
2018-12-12T13:28:49.942Z,2.29
2018-12-12T13:31:20.549Z,2.25
2018-12-12T13:33:51.301Z,2.16
2018-12-12T13:36:22.069Z,2.18
2018-12-12T13:38:52.697Z,2.16
2018-12-12T13:41:23.505Z,2.19
2018-12-12T13:43:54.610Z,2.14
2018-12-12T13:46:25.351Z,2.24
2018-12-12T13:48:56.722Z,2.29
2018-12-12T13:51:27.466Z,2.22
2018-12-12T13:53:58.089Z,2.04
2018-12-12T13:56:28.942Z,2.03
2018-12-12T13:58:59.553Z,2.02
2018-12-12T14:01:30.215Z,1.94
2018-12-12T14:04:00.895Z,1.97
2018-12-12T14:06:31.614Z,1.99
2018-12-12T14:09:02.352Z,2.00
2018-12-12T14:11:34.186Z,1.96
2018-12-12T14:14:04.916Z,1.97
2018-12-12T14:16:35.706Z,1.93
2018-12-12T14:19:06.370Z,1.84
2018-12-12T14:21:37.697Z,1.76
2018-12-12T14:24:08.384Z,1.58
2018-12-12T14:26:39.201Z,1.58
2018-12-12T14:29:10.931Z,1.55
2018-12-12T14:31:41.607Z,1.45
2018-12-12T14:34:12.296Z,1.23
2018-12-12T14:36:43.283Z,0.98
2018-12-12T14:39:14.745Z,0.92
2018-12-12T14:41:45.870Z,0.96
2018-12-12T14:44:16.678Z,0.89
2018-12-12T14:46:47.300Z,1.01
2018-12-12T14:49:17.940Z,1.16
2018-12-12T14:51:48.608Z,1.19
2018-12-12T14:54:19.264Z,1.29
2018-12-12T14:56:50.041Z,1.18
2018-12-12T14:59:20.768Z,1.18
2018-12-12T15:01:51.541Z,1.16
2018-12-12T15:04:22.315Z,1.19
2018-12-12T15:06:53.037Z,1.14
2018-12-12T15:09:23.723Z,1.18
2018-12-12T15:11:54.465Z,1.25
2018-12-12T15:14:25.141Z,1.29
2018-12-12T15:16:56.165Z,1.31
2018-12-12T15:19:27.615Z,1.32
2018-12-12T15:21:58.350Z,1.27
2018-12-12T15:24:29.139Z,1.31
2018-12-12T15:26:59.840Z,1.34
2018-12-12T15:29:30.536Z,1.22
2018-12-12T15:32:02.465Z,1.26
2018-12-12T15:34:33.173Z,1.27
2018-12-12T15:37:04.044Z,1.21
2018-12-12T15:39:34.744Z,1.16
2018-12-12T15:42:05.451Z,1.20
2018-12-12T15:44:36.223Z,1.11
2018-12-12T15:47:06.874Z,1.10
2018-12-12T15:49:37.582Z,1.05
2018-12-12T15:52:08.221Z,1.08
2018-12-12T15:54:38.892Z,1.05
2018-12-12T15:57:09.853Z,1.07
2018-12-12T15:59:40.555Z,1.07
2018-12-12T16:02:11.311Z,0.98
2018-12-12T16:04:41.940Z,0.92
2018-12-12T16:07:12.612Z,0.92
2018-12-12T16:09:43.317Z,0.82
2018-12-12T16:12:17.717Z,0.93
2018-12-12T16:14:48.346Z,0.84
2018-12-12T16:17:19.217Z,0.86
2018-12-12T16:19:49.845Z,0.84
2018-12-12T16:22:20.457Z,0.82
2018-12-12T16:24:51.081Z,0.85
2018-12-12T16:27:21.683Z,0.79
2018-12-12T16:29:52.330Z,0.86
2018-12-12T16:32:22.981Z,0.75
2018-12-12T16:34:55.815Z,0.67
2018-12-12T16:37:26.607Z,0.66
2018-12-12T16:39:57.232Z,0.65
2018-12-12T16:42:28.945Z,0.65
2018-12-12T16:45:01.724Z,0.59
2018-12-12T16:47:37.551Z,0.67
2018-12-12T16:50:08.804Z,0.62
2018-12-12T16:52:39.502Z,0.58
2018-12-12T16:55:10.500Z,0.65
2018-12-12T16:57:41.475Z,0.57
2018-12-12T17:00:12.273Z,0.58
2018-12-12T17:02:42.986Z,0.56
2018-12-12T17:05:13.645Z,0.55
2018-12-12T17:07:44.280Z,0.55
2018-12-12T17:10:15.033Z,0.58
2018-12-12T17:12:45.715Z,0.51
2018-12-12T17:15:16.401Z,0.40
2018-12-12T17:17:47.260Z,0.43
2018-12-12T17:20:17.889Z,0.49
2018-12-12T17:22:48.707Z,0.52
2018-12-12T17:25:19.382Z,0.44
2018-12-12T17:27:50.132Z,0.40
2018-12-12T17:30:21.304Z,0.38
2018-12-12T17:32:53.014Z,0.30
2018-12-12T17:35:24.164Z,0.36
2018-12-12T17:37:55.178Z,0.45
2018-12-12T17:40:25.899Z,0.50
2018-12-12T17:42:56.584Z,0.42
2018-12-12T17:45:27.279Z,0.41
2018-12-12T17:47:57.946Z,0.43
2018-12-12T17:50:28.631Z,0.48
2018-12-12T17:52:59.282Z,0.49
2018-12-12T17:55:29.975Z,0.47
2018-12-12T17:58:00.885Z,0.47
2018-12-12T18:00:31.552Z,0.41
2018-12-12T18:03:04.885Z,0.47
2018-12-12T18:05:40.789Z,0.43
2018-12-12T18:08:11.481Z,0.44
2018-12-12T18:10:43.730Z,0.38
2018-12-12T18:13:14.402Z,0.40
2018-12-12T18:15:47.508Z,0.41
2018-12-12T18:18:20.403Z,0.34
2018-12-12T18:20:51.132Z,0.30
2018-12-12T18:23:23.913Z,0.35
2018-12-12T18:25:56.637Z,0.40
2018-12-12T18:28:27.301Z,0.32
2018-12-12T18:30:57.944Z,0.28
2018-12-12T18:33:30.703Z,0.23
2018-12-12T18:36:06.971Z,0.33
2018-12-12T18:38:37.880Z,0.27
2018-12-12T18:41:08.482Z,0.33
2018-12-12T18:43:41.247Z,0.28
2018-12-12T18:46:11.788Z,0.19
2018-12-12T18:48:42.403Z,0.26
2018-12-12T18:51:15.055Z,0.26
2018-12-12T18:53:45.733Z,0.22
2018-12-12T18:56:18.513Z,0.26
2018-12-12T18:58:49.452Z,0.30
2018-12-12T19:01:20.165Z,0.22
2018-12-12T19:03:51.067Z,0.26
2018-12-12T19:06:21.859Z,0.30
2018-12-12T19:08:52.554Z,0.29
2018-12-12T19:11:23.264Z,0.27
2018-12-12T19:13:54.518Z,0.30
2018-12-12T19:16:25.212Z,0.29
2018-12-12T19:18:56.509Z,0.27
2018-12-12T19:21:27.190Z,0.21
2018-12-12T19:23:58.082Z,0.19
2018-12-12T19:26:28.817Z,0.24
2018-12-12T19:28:59.540Z,0.19
2018-12-12T19:31:30.224Z,0.25
2018-12-12T19:34:00.853Z,0.26
2018-12-12T19:36:31.865Z,0.26
2018-12-12T19:39:03.032Z,0.27
2018-12-12T19:41:35.348Z,0.25
2018-12-12T19:44:06.041Z,0.25
2018-12-12T19:46:36.759Z,0.31
2018-12-12T19:49:07.413Z,0.27
2018-12-12T19:51:38.935Z,0.14
2018-12-12T19:54:09.895Z,0.25
2018-12-12T19:56:40.595Z,0.19
2018-12-12T19:59:13.238Z,0.23
2018-12-12T20:01:43.896Z,0.19
2018-12-12T20:04:14.596Z,0.19
2018-12-12T20:06:47.506Z,0.13
2018-12-12T20:09:18.279Z,0.05
2018-12-12T20:11:49.045Z,0.07
2018-12-12T20:14:19.651Z,0.11
2018-12-12T20:16:50.285Z,0.03
2018-12-12T20:19:21.196Z,-0.05
2018-12-12T20:21:52.019Z,0.06
2018-12-12T20:24:23.016Z,0.05
2018-12-12T20:26:54.150Z,0.01
2018-12-12T20:29:25.193Z,0.05
2018-12-12T20:31:56.363Z,0.02
2018-12-12T20:34:27.331Z,0.00
2018-12-12T20:36:58.310Z,-0.02
2018-12-12T20:39:29.974Z,0.06
2018-12-12T20:42:00.952Z,0.04
2018-12-12T20:44:31.938Z,0.07
2018-12-12T20:47:03.066Z,0.13
2018-12-12T20:49:34.172Z,0.12
2018-12-12T20:52:05.131Z,0.16
2018-12-12T20:54:36.045Z,0.14
2018-12-12T20:57:07.098Z,0.12
2018-12-12T20:59:38.568Z,0.19
2018-12-12T21:02:09.578Z,0.21
2018-12-12T21:04:40.549Z,0.27
2018-12-12T21:07:11.691Z,0.32
2018-12-12T21:09:42.765Z,0.37
2018-12-12T21:12:13.763Z,0.41
2018-12-12T21:14:44.978Z,0.37
2018-12-12T21:17:16.124Z,0.36
2018-12-12T21:19:47.383Z,0.43
2018-12-12T21:22:18.430Z,0.46
2018-12-12T21:24:50.668Z,0.52
2018-12-12T21:27:21.739Z,0.54
2018-12-12T21:29:52.838Z,0.51
2018-12-12T21:32:23.922Z,0.55
2018-12-12T21:34:55.538Z,0.58
2018-12-12T21:37:26.781Z,0.59
2018-12-12T21:39:57.973Z,0.60
2018-12-12T21:42:29.227Z,0.65
2018-12-12T21:45:00.277Z,0.66
2018-12-12T21:47:31.420Z,0.59
2018-12-12T21:50:02.577Z,0.59
2018-12-12T21:52:33.465Z,0.64
2018-12-12T21:55:05.387Z,0.64
2018-12-12T21:57:37.769Z,0.65
2018-12-12T22:00:10.126Z,0.68
2018-12-12T22:02:40.888Z,0.69
2018-12-12T22:05:11.631Z,0.70
2018-12-12T22:07:42.344Z,0.68
2018-12-12T22:10:13.061Z,0.48
2018-12-12T22:12:43.912Z,0.74
2018-12-12T22:15:14.568Z,0.70
2018-12-12T22:17:45.326Z,0.71
2018-12-12T22:20:16.181Z,0.75
2018-12-12T22:22:46.894Z,0.65
2018-12-12T22:25:17.609Z,0.64
2018-12-12T22:27:48.245Z,0.67
2018-12-12T22:30:19.020Z,0.66
2018-12-12T22:32:50.200Z,0.58
2018-12-12T22:35:20.917Z,0.69
2018-12-12T22:37:51.636Z,0.74
2018-12-12T22:40:22.931Z,0.75
2018-12-12T22:42:53.534Z,0.83
2018-12-12T22:45:24.209Z,0.84
2018-12-12T22:47:55.307Z,0.93
2018-12-12T22:50:25.938Z,0.93
2018-12-12T22:52:56.549Z,0.96
2018-12-12T22:55:27.208Z,0.97
2018-12-12T22:57:57.836Z,1.01
2018-12-12T23:00:33.469Z,1.11
2018-12-12T23:03:06.569Z,1.13
2018-12-12T23:05:37.340Z,1.11
2018-12-12T23:08:08.090Z,1.18
2018-12-12T23:10:40.659Z,1.17
2018-12-12T23:13:11.533Z,1.20
2018-12-12T23:15:42.177Z,1.24
2018-12-12T23:18:12.882Z,1.28
2018-12-12T23:20:43.555Z,1.29
2018-12-12T23:23:14.203Z,1.20
2018-12-12T23:25:45.621Z,1.24
2018-12-12T23:28:16.359Z,1.27
2018-12-12T23:30:46.961Z,1.29
2018-12-12T23:33:17.642Z,1.28
2018-12-12T23:35:48.359Z,1.22
2018-12-12T23:38:18.996Z,1.16
2018-12-12T23:40:49.699Z,1.13
2018-12-12T23:43:20.295Z,1.16
2018-12-12T23:45:50.967Z,1.14
2018-12-12T23:48:21.633Z,1.16
2018-12-12T23:50:52.275Z,1.22
2018-12-12T23:53:22.972Z,1.16
2018-12-12T23:55:53.649Z,1.09
2018-12-12T23:58:24.349Z,1.11
